createdAt,value
2019-04-06T00:01:28.857Z,3.00
2019-04-06T00:03:55.952Z,2.97
2019-04-06T00:06:23.061Z,2.93
2019-04-06T00:08:50.148Z,2.94
2019-04-06T00:11:17.252Z,2.93
2019-04-06T00:13:44.370Z,2.92
2019-04-06T00:16:12.558Z,2.89
2019-04-06T00:18:39.635Z,2.88
2019-04-06T00:21:06.745Z,2.87
2019-04-06T00:23:33.838Z,2.87
2019-04-06T00:26:00.936Z,2.85
2019-04-06T00:28:28.008Z,2.84
2019-04-06T00:31:04.939Z,2.83
2019-04-06T00:33:32.083Z,2.83
2019-04-06T00:35:59.168Z,2.82
2019-04-06T00:38:26.249Z,2.82
2019-04-06T00:40:54.453Z,2.81
2019-04-06T00:43:21.491Z,2.79
2019-04-06T00:45:48.570Z,2.75
2019-04-06T00:48:15.666Z,2.72
2019-04-06T00:50:43.946Z,2.69
2019-04-06T00:53:11.010Z,2.67
2019-04-06T00:55:38.158Z,2.64
2019-04-06T00:58:05.245Z,2.60
2019-04-06T01:00:32.322Z,2.56
2019-04-06T01:02:59.399Z,2.52
2019-04-06T01:05:26.494Z,2.49
2019-04-06T01:07:53.628Z,2.48
2019-04-06T01:10:21.826Z,2.45
2019-04-06T01:12:48.909Z,2.44
2019-04-06T01:15:15.994Z,2.41
2019-04-06T01:17:43.059Z,2.37
2019-04-06T01:20:10.254Z,2.34
2019-04-06T01:22:39.134Z,2.32
2019-04-06T01:25:07.739Z,2.31
2019-04-06T01:27:34.809Z,2.26
2019-04-06T01:30:01.886Z,2.24
2019-04-06T01:32:28.999Z,2.22
2019-04-06T01:34:56.086Z,2.20
2019-04-06T01:37:23.144Z,2.20
2019-04-06T01:39:52.027Z,2.21
2019-04-06T01:42:19.099Z,2.21
2019-04-06T01:44:46.177Z,2.22
2019-04-06T01:47:13.273Z,2.23
2019-04-06T01:49:42.177Z,2.23
2019-04-06T01:52:09.260Z,2.24
2019-04-06T01:54:36.344Z,2.23
2019-04-06T01:57:03.429Z,2.21
2019-04-06T01:59:30.519Z,2.20
2019-04-06T02:02:20.493Z,2.19
2019-04-06T02:04:47.578Z,2.18
2019-04-06T02:07:14.654Z,2.18
2019-04-06T02:09:42.831Z,2.18
2019-04-06T02:12:09.927Z,2.17
2019-04-06T02:14:38.206Z,2.16
2019-04-06T02:17:05.282Z,2.16
2019-04-06T02:19:32.360Z,2.16
2019-04-06T02:21:59.483Z,2.16
2019-04-06T02:24:26.547Z,2.16
2019-04-06T02:26:53.618Z,2.16
2019-04-06T02:29:20.701Z,2.14
2019-04-06T02:32:05.398Z,2.12
2019-04-06T02:34:54.896Z,2.14
2019-04-06T02:37:41.814Z,2.17
2019-04-06T02:40:27.076Z,2.19
2019-04-06T02:43:01.605Z,2.19
2019-04-06T02:45:28.687Z,2.18
2019-04-06T02:47:55.763Z,2.20
2019-04-06T02:50:22.839Z,2.19
2019-04-06T02:52:49.990Z,2.18
2019-04-06T02:55:17.068Z,2.17
2019-04-06T02:57:45.139Z,2.14
2019-04-06T03:00:12.770Z,2.13
2019-04-06T03:02:39.889Z,2.12
2019-04-06T03:05:07.083Z,2.09
2019-04-06T03:07:34.397Z,2.09
2019-04-06T03:10:01.481Z,2.07
2019-04-06T03:12:28.740Z,2.06
2019-04-06T03:14:55.966Z,2.06
2019-04-06T03:17:23.069Z,2.04
2019-04-06T03:19:50.396Z,2.04
2019-04-06T03:22:17.551Z,2.04
2019-04-06T03:24:44.713Z,2.04
2019-04-06T03:27:11.785Z,2.03
2019-04-06T03:29:39.156Z,2.02
2019-04-06T03:32:06.226Z,2.00
2019-04-06T03:34:33.522Z,1.98
2019-04-06T03:37:00.694Z,1.98
2019-04-06T03:39:27.884Z,1.98
2019-04-06T03:41:55.024Z,1.99
2019-04-06T03:44:22.094Z,1.99
2019-04-06T03:46:49.157Z,2.00
2019-04-06T03:49:16.227Z,1.99
2019-04-06T03:51:43.294Z,1.98
2019-04-06T03:54:10.374Z,1.97
2019-04-06T03:56:37.480Z,1.97
2019-04-06T03:59:04.569Z,1.96
2019-04-06T04:01:31.643Z,1.95
2019-04-06T04:03:58.743Z,1.94
2019-04-06T04:06:25.989Z,1.90
2019-04-06T04:08:54.203Z,1.90
2019-04-06T04:11:21.278Z,1.88
2019-04-06T04:13:48.356Z,1.87
2019-04-06T04:16:15.421Z,1.85
2019-04-06T04:18:42.496Z,1.85
2019-04-06T04:21:09.586Z,1.83
2019-04-06T04:23:36.940Z,1.82
2019-04-06T04:26:04.102Z,1.81
2019-04-06T04:28:31.194Z,1.81
2019-04-06T04:30:58.546Z,1.82
2019-04-06T04:33:25.761Z,1.83
2019-04-06T04:35:52.828Z,1.84
2019-04-06T04:38:19.902Z,1.85
2019-04-06T04:40:46.989Z,1.85
2019-04-06T04:43:14.065Z,1.84
2019-04-06T04:45:41.134Z,1.84
2019-04-06T04:48:08.207Z,1.86
2019-04-06T04:50:35.295Z,1.89
2019-04-06T04:53:02.385Z,1.89
2019-04-06T04:55:29.458Z,1.92
2019-04-06T04:57:56.527Z,1.96
2019-04-06T05:00:23.610Z,1.97
2019-04-06T05:02:51.818Z,2.01
2019-04-06T05:05:18.886Z,2.06
2019-04-06T05:07:45.958Z,2.09
2019-04-06T05:10:14.256Z,2.14
2019-04-06T05:12:41.328Z,2.18
2019-04-06T05:15:10.181Z,2.21
2019-04-06T05:17:37.280Z,2.25
2019-04-06T05:20:05.896Z,2.31
2019-04-06T05:22:32.972Z,2.35
2019-04-06T05:25:00.048Z,2.40
2019-04-06T05:27:27.154Z,2.44
2019-04-06T05:29:54.235Z,2.50
2019-04-06T05:32:21.535Z,2.54
2019-04-06T05:34:48.608Z,2.59
2019-04-06T05:37:15.686Z,2.66
2019-04-06T05:39:43.774Z,2.72
2019-04-06T05:42:10.855Z,2.81
2019-04-06T05:44:39.019Z,2.88
2019-04-06T05:47:06.076Z,2.96
2019-04-06T05:49:33.157Z,3.00
2019-04-06T05:52:00.340Z,3.06
2019-04-06T05:54:27.495Z,3.13
2019-04-06T05:56:54.580Z,3.20
2019-04-06T05:59:21.656Z,3.27
2019-04-06T06:01:49.374Z,3.39
2019-04-06T06:04:16.529Z,3.49
2019-04-06T06:06:43.752Z,3.61
2019-04-06T06:09:11.121Z,3.71
2019-04-06T06:11:38.503Z,3.85
2019-04-06T06:14:06.030Z,3.97
2019-04-06T06:16:33.102Z,4.14
2019-04-06T06:19:00.172Z,4.33
2019-04-06T06:21:27.349Z,4.52
2019-04-06T06:23:54.563Z,4.66
2019-04-06T06:26:25.716Z,4.84
2019-04-06T06:28:52.737Z,5.00
2019-04-06T06:31:19.808Z,5.18
2019-04-06T06:33:46.983Z,5.37
2019-04-06T06:36:14.302Z,5.54
2019-04-06T06:38:41.524Z,5.70
2019-04-06T06:41:08.715Z,5.87
2019-04-06T06:43:35.838Z,5.98
2019-04-06T06:46:03.182Z,6.14
2019-04-06T06:48:30.338Z,6.27
2019-04-06T06:50:57.533Z,6.38
2019-04-06T06:53:24.781Z,6.52
2019-04-06T06:55:53.345Z,6.62
2019-04-06T06:58:25.545Z,6.75
2019-04-06T07:00:49.825Z,6.83
2019-04-06T07:03:16.905Z,6.93
2019-04-06T07:05:44.171Z,7.05
2019-04-06T07:08:11.397Z,7.10
2019-04-06T07:10:38.512Z,7.20
2019-04-06T07:13:05.594Z,7.31
2019-04-06T07:15:33.102Z,7.39
2019-04-06T07:18:00.273Z,7.44
2019-04-06T07:20:27.359Z,7.50
2019-04-06T07:22:54.447Z,7.60
2019-04-06T07:25:21.548Z,7.72
2019-04-06T07:27:48.630Z,7.85
2019-04-06T07:30:15.836Z,7.93
2019-04-06T07:32:44.035Z,8.01
2019-04-06T07:35:12.042Z,8.15
2019-04-06T07:37:39.303Z,8.23
2019-04-06T07:40:06.800Z,8.34
2019-04-06T07:42:35.220Z,8.45
2019-04-06T07:45:02.421Z,8.57
2019-04-06T07:47:29.558Z,8.61
2019-04-06T07:49:56.650Z,8.78
2019-04-06T07:52:23.822Z,8.91
2019-04-06T07:54:50.937Z,9.05
2019-04-06T07:57:18.032Z,9.14
2019-04-06T07:59:45.148Z,9.30
2019-04-06T08:02:12.502Z,9.46
2019-04-06T08:04:39.619Z,9.63
2019-04-06T08:07:08.521Z,9.72
2019-04-06T08:09:35.649Z,9.94
2019-04-06T08:12:02.859Z,10.44
2019-04-06T08:14:29.922Z,11.32
2019-04-06T08:16:57.025Z,12.49
2019-04-06T08:19:24.207Z,13.47
2019-04-06T08:21:58.033Z,14.21
2019-04-06T08:24:25.138Z,14.99
2019-04-06T08:26:52.351Z,15.48
2019-04-06T08:29:19.459Z,15.51
2019-04-06T08:31:46.744Z,15.51
2019-04-06T08:34:14.219Z,15.67
2019-04-06T08:36:42.609Z,15.65
2019-04-06T08:39:09.707Z,15.29
2019-04-06T08:41:36.895Z,15.02
2019-04-06T08:44:04.501Z,14.59
2019-04-06T08:46:31.618Z,14.10
2019-04-06T08:48:58.977Z,13.59
2019-04-06T08:51:26.084Z,13.51
2019-04-06T08:53:53.201Z,13.31
2019-04-06T08:56:20.343Z,13.26
2019-04-06T08:58:47.418Z,13.43
2019-04-06T09:01:14.917Z,13.59
2019-04-06T09:03:43.095Z,13.81
2019-04-06T09:06:10.211Z,14.03
2019-04-06T09:08:37.283Z,14.14
2019-04-06T09:11:04.389Z,14.22
2019-04-06T09:13:32.819Z,14.02
2019-04-06T09:15:59.962Z,14.03
2019-04-06T09:18:28.665Z,14.12
2019-04-06T09:20:56.007Z,14.13
2019-04-06T09:23:23.106Z,14.40
2019-04-06T09:25:50.444Z,14.39
2019-04-06T09:28:19.500Z,14.31
2019-04-06T09:30:46.676Z,14.46
2019-04-06T09:33:14.069Z,14.68
2019-04-06T09:35:42.489Z,14.87
2019-04-06T09:38:18.543Z,14.79
2019-04-06T09:40:47.448Z,14.87
2019-04-06T09:43:14.679Z,15.07
2019-04-06T09:45:52.690Z,15.29
2019-04-06T09:48:45.537Z,15.37
2019-04-06T09:51:19.032Z,15.16
2019-04-06T09:54:17.933Z,15.02
2019-04-06T09:57:19.710Z,14.74
2019-04-06T10:00:09.313Z,14.59
2019-04-06T10:03:11.339Z,14.54
2019-04-06T10:05:50.752Z,14.61
2019-04-06T10:08:44.864Z,14.71
2019-04-06T10:11:30.334Z,14.88
2019-04-06T10:14:17.348Z,14.95
2019-04-06T10:17:04.078Z,14.90
2019-04-06T10:20:06.270Z,14.87
2019-04-06T10:22:50.329Z,14.78
2019-04-06T10:25:35.663Z,14.73
2019-04-06T10:28:15.822Z,14.43
2019-04-06T10:31:11.464Z,14.34
2019-04-06T10:34:04.317Z,14.52
2019-04-06T10:37:00.081Z,14.66
2019-04-06T10:39:52.656Z,14.51
2019-04-06T10:42:33.780Z,14.44
2019-04-06T10:45:29.390Z,14.58
2019-04-06T10:48:35.950Z,14.74
2019-04-06T10:51:21.441Z,14.93
2019-04-06T10:54:11.053Z,14.87
2019-04-06T10:56:57.229Z,14.87
2019-04-06T10:59:44.065Z,15.00
2019-04-06T11:02:29.315Z,14.81
2019-04-06T11:05:06.688Z,14.93
2019-04-06T11:07:55.194Z,15.08
2019-04-06T11:10:47.601Z,15.06
2019-04-06T11:13:38.814Z,15.10
2019-04-06T11:16:16.012Z,15.14
2019-04-06T11:19:09.021Z,15.22
2019-04-06T11:22:04.515Z,15.17
2019-04-06T11:24:49.749Z,15.08
2019-04-06T11:27:36.582Z,14.88
2019-04-06T11:30:26.419Z,14.75
2019-04-06T11:33:11.710Z,14.84
2019-04-06T11:35:57.310Z,14.79
2019-04-06T11:38:34.795Z,14.82
2019-04-06T11:41:22.421Z,14.86
2019-04-06T11:44:18.659Z,14.91
2019-04-06T11:47:06.354Z,14.86
2019-04-06T11:49:42.310Z,14.88
2019-04-06T11:52:40.938Z,14.93
2019-04-06T11:55:14.822Z,14.74
2019-04-06T11:58:00.236Z,14.71
2019-04-06T12:00:56.082Z,14.69
2019-04-06T12:03:29.361Z,14.51
2019-04-06T12:06:06.210Z,14.61
2019-04-06T12:08:58.643Z,14.65
2019-04-06T12:12:00.665Z,14.86
2019-04-06T12:14:54.387Z,15.12
2019-04-06T12:17:56.136Z,14.93
2019-04-06T12:20:33.494Z,14.83
2019-04-06T12:23:15.498Z,14.74
2019-04-06T12:25:54.219Z,14.83
2019-04-06T12:28:28.801Z,14.81
2019-04-06T12:31:21.630Z,14.63
2019-04-06T12:34:03.016Z,14.53
2019-04-06T12:36:55.903Z,14.50
2019-04-06T12:39:36.847Z,14.66
2019-04-06T12:42:23.202Z,14.43
2019-04-06T12:45:19.317Z,14.46
2019-04-06T12:48:09.673Z,14.60
2019-04-06T12:50:56.464Z,14.69
2019-04-06T12:53:34.180Z,14.79
2019-04-06T12:56:30.146Z,14.72
2019-04-06T12:59:28.896Z,14.65
2019-04-06T13:02:18.698Z,14.70
2019-04-06T13:04:56.828Z,14.60
2019-04-06T13:07:45.708Z,14.50
2019-04-06T13:10:31.210Z,14.58
2019-04-06T13:13:27.137Z,14.59
2019-04-06T13:16:32.187Z,14.59
2019-04-06T13:19:37.125Z,14.49
2019-04-06T13:22:23.985Z,14.51
2019-04-06T13:24:59.544Z,14.36
2019-04-06T13:27:49.601Z,14.37
2019-04-06T13:30:32.141Z,14.41
2019-04-06T13:33:05.890Z,14.50
2019-04-06T13:35:44.694Z,14.48
2019-04-06T13:38:43.428Z,14.51
2019-04-06T13:41:28.906Z,14.38
2019-04-06T13:44:14.046Z,14.20
2019-04-06T13:47:00.833Z,14.18
2019-04-06T13:49:54.066Z,14.07
2019-04-06T13:52:34.159Z,13.80
2019-04-06T13:55:19.712Z,13.61
2019-04-06T13:57:57.868Z,13.64
2019-04-06T14:00:43.260Z,13.61
2019-04-06T14:03:25.163Z,13.56
2019-04-06T14:06:11.118Z,13.56
2019-04-06T14:08:59.763Z,13.44
2019-04-06T14:11:45.195Z,13.28
2019-04-06T14:14:32.231Z,13.20
2019-04-06T14:17:17.638Z,13.20
2019-04-06T14:20:03.802Z,13.27
2019-04-06T14:22:53.315Z,13.30
2019-04-06T14:25:49.262Z,13.40
2019-04-06T14:28:36.129Z,13.51
2019-04-06T14:31:29.500Z,13.49
2019-04-06T14:34:10.822Z,13.50
2019-04-06T14:36:52.105Z,13.39
2019-04-06T14:39:38.864Z,13.28
2019-04-06T14:42:15.358Z,13.35
2019-04-06T14:45:05.566Z,13.36
2019-04-06T14:47:58.307Z,13.32
2019-04-06T14:50:42.338Z,13.38
2019-04-06T14:53:31.908Z,13.25
2019-04-06T14:56:14.034Z,13.19
2019-04-06T14:59:16.989Z,13.02
2019-04-06T15:02:11.567Z,12.91
2019-04-06T15:05:00.119Z,12.97
2019-04-06T15:07:40.915Z,12.96
2019-04-06T15:10:37.430Z,12.80
2019-04-06T15:13:14.743Z,12.86
2019-04-06T15:16:01.666Z,12.74
2019-04-06T15:18:37.106Z,12.74
2019-04-06T15:21:23.795Z,12.57
2019-04-06T15:24:23.651Z,12.44
2019-04-06T15:27:10.296Z,12.38
2019-04-06T15:29:47.676Z,12.35
2019-04-06T15:32:36.967Z,12.29
2019-04-06T15:35:31.907Z,12.24
2019-04-06T15:38:15.123Z,12.14
2019-04-06T15:41:09.654Z,11.94
2019-04-06T15:44:05.265Z,11.92
2019-04-06T15:46:51.310Z,11.85
2019-04-06T15:49:55.799Z,11.82
2019-04-06T15:52:41.427Z,11.83
2019-04-06T15:55:31.118Z,11.84
2019-04-06T15:58:33.305Z,11.75
2019-04-06T16:01:13.950Z,11.76
2019-04-06T16:03:59.156Z,11.76
2019-04-06T16:06:52.041Z,11.73
2019-04-06T16:09:54.138Z,11.72
2019-04-06T16:12:39.943Z,11.76
2019-04-06T16:15:21.181Z,11.81
2019-04-06T16:18:08.195Z,11.81
2019-04-06T16:20:44.774Z,11.59
2019-04-06T16:23:38.061Z,11.47
2019-04-06T16:26:14.352Z,11.44
2019-04-06T16:29:06.795Z,11.42
2019-04-06T16:31:53.714Z,11.24
2019-04-06T16:34:29.547Z,11.01
2019-04-06T16:37:17.866Z,10.98
2019-04-06T16:39:52.423Z,10.93
2019-04-06T16:42:41.810Z,10.92
2019-04-06T16:45:24.034Z,10.88
2019-04-06T16:48:10.704Z,10.79
2019-04-06T16:51:00.360Z,10.80
2019-04-06T16:53:53.205Z,10.74
2019-04-06T16:56:37.037Z,10.71
2019-04-06T16:59:21.240Z,10.53
2019-04-06T17:02:08.214Z,10.42
2019-04-06T17:04:55.003Z,10.34
2019-04-06T17:07:33.970Z,10.28
2019-04-06T17:10:38.975Z,10.09
2019-04-06T17:13:44.611Z,10.11
2019-04-06T17:16:40.914Z,10.06
2019-04-06T17:19:33.922Z,10.06
2019-04-06T17:22:17.501Z,10.05
2019-04-06T17:25:09.981Z,10.00
2019-04-06T17:28:01.635Z,9.97
2019-04-06T17:30:54.351Z,9.93
2019-04-06T17:33:36.461Z,9.84
2019-04-06T17:36:31.309Z,9.81
2019-04-06T17:39:25.328Z,9.75
2019-04-06T17:42:21.222Z,9.68
2019-04-06T17:45:11.453Z,9.64
2019-04-06T17:47:56.681Z,9.57
2019-04-06T17:50:52.324Z,9.51
2019-04-06T17:53:39.257Z,9.45
2019-04-06T17:56:33.341Z,9.38
2019-04-06T17:59:20.253Z,9.34
2019-04-06T18:02:10.272Z,9.29
2019-04-06T18:05:03.345Z,9.26
2019-04-06T18:07:39.683Z,9.20
2019-04-06T18:10:17.297Z,9.17
2019-04-06T18:13:04.454Z,9.15
2019-04-06T18:15:31.925Z,9.11
2019-04-06T18:17:59.551Z,9.08
2019-04-06T18:20:26.817Z,9.01
2019-04-06T18:22:53.952Z,9.01
2019-04-06T18:25:22.058Z,8.94
2019-04-06T18:27:50.564Z,8.92
2019-04-06T18:30:18.158Z,8.90
2019-04-06T18:32:58.321Z,8.83
2019-04-06T18:35:17.904Z,8.82
2019-04-06T18:37:51.367Z,8.81
2019-04-06T18:40:28.284Z,8.83
2019-04-06T18:42:56.205Z,8.83
2019-04-06T18:45:24.217Z,8.82
2019-04-06T18:47:51.340Z,8.74
2019-04-06T18:50:18.625Z,8.67
2019-04-06T18:52:45.798Z,8.64
2019-04-06T18:55:13.009Z,8.66
2019-04-06T18:57:40.327Z,8.65
2019-04-06T19:00:11.603Z,8.62
2019-04-06T19:02:38.456Z,8.63
2019-04-06T19:05:06.968Z,8.57
2019-04-06T19:07:34.230Z,8.56
2019-04-06T19:10:01.604Z,8.53
2019-04-06T19:12:28.756Z,8.49
2019-04-06T19:14:55.905Z,8.46
2019-04-06T19:17:26.099Z,8.39
2019-04-06T19:19:53.822Z,8.33
2019-04-06T19:22:21.203Z,8.33
2019-04-06T19:24:48.764Z,8.34
2019-04-06T19:27:15.875Z,8.32
2019-04-06T19:29:42.963Z,8.28
2019-04-06T19:32:10.349Z,8.23
2019-04-06T19:34:37.559Z,8.22
2019-04-06T19:37:04.746Z,8.18
2019-04-06T19:39:31.908Z,8.17
2019-04-06T19:41:59.138Z,8.15
2019-04-06T19:44:26.223Z,8.13
2019-04-06T19:46:54.824Z,8.11
2019-04-06T19:49:22.023Z,8.09
2019-04-06T19:51:49.550Z,8.08
2019-04-06T19:54:16.777Z,8.06
2019-04-06T19:56:44.073Z,8.03
2019-04-06T19:59:12.890Z,8.00
2019-04-06T20:01:40.280Z,7.96
2019-04-06T20:04:07.389Z,7.91
2019-04-06T20:06:34.633Z,7.88
2019-04-06T20:09:01.775Z,7.85
2019-04-06T20:11:28.984Z,7.81
2019-04-06T20:13:56.244Z,7.76
2019-04-06T20:16:23.351Z,7.74
2019-04-06T20:18:50.706Z,7.70
2019-04-06T20:21:17.849Z,7.67
2019-04-06T20:23:44.978Z,7.64
2019-04-06T20:26:12.074Z,7.58
2019-04-06T20:28:39.230Z,7.56
2019-04-06T20:31:06.392Z,7.54
2019-04-06T20:33:35.018Z,7.52
2019-04-06T20:36:02.555Z,7.47
2019-04-06T20:38:29.956Z,7.46
2019-04-06T20:40:57.216Z,7.45
2019-04-06T20:43:24.949Z,7.41
2019-04-06T20:45:52.122Z,7.38
2019-04-06T20:48:20.582Z,7.36
2019-04-06T20:50:47.751Z,7.33
2019-04-06T20:53:14.879Z,7.32
2019-04-06T20:55:42.027Z,7.30
2019-04-06T20:58:09.554Z,7.29
2019-04-06T21:00:36.900Z,7.27
2019-04-06T21:03:05.060Z,7.24
2019-04-06T21:05:32.454Z,7.24
2019-04-06T21:08:00.157Z,7.22
2019-04-06T21:10:27.390Z,7.20
2019-04-06T21:12:54.511Z,7.20
2019-04-06T21:15:21.692Z,7.18
2019-04-06T21:17:49.386Z,7.16
2019-04-06T21:20:17.209Z,7.11
2019-04-06T21:22:44.426Z,7.03
2019-04-06T21:25:11.544Z,6.95
2019-04-06T21:27:38.636Z,6.89
2019-04-06T21:30:07.064Z,6.84
2019-04-06T21:32:34.369Z,6.80
2019-04-06T21:35:04.233Z,6.78
2019-04-06T21:37:30.462Z,6.75
2019-04-06T21:39:57.842Z,6.72
2019-04-06T21:42:27.577Z,6.67
2019-04-06T21:44:54.785Z,6.65
2019-04-06T21:47:22.025Z,6.64
2019-04-06T21:49:49.130Z,6.59
2019-04-06T21:52:16.771Z,6.55
2019-04-06T21:54:44.023Z,6.54
2019-04-06T21:57:11.120Z,6.56
2019-04-06T21:59:38.196Z,6.56
2019-04-06T22:02:06.056Z,6.54
2019-04-06T22:04:33.681Z,6.51
2019-04-06T22:07:01.019Z,6.48
2019-04-06T22:09:28.755Z,6.43
2019-04-06T22:11:55.937Z,6.36
2019-04-06T22:14:23.840Z,6.33
2019-04-06T22:16:51.005Z,6.32
2019-04-06T22:19:18.080Z,6.32
2019-04-06T22:21:45.327Z,6.33
2019-04-06T22:24:12.394Z,6.29
2019-04-06T22:26:39.509Z,6.23
2019-04-06T22:29:06.627Z,6.17
2019-04-06T22:31:33.731Z,6.11
2019-04-06T22:34:00.827Z,6.07
2019-04-06T22:36:27.924Z,6.03
2019-04-06T22:38:55.155Z,5.99
2019-04-06T22:41:22.224Z,5.95
2019-04-06T22:43:49.664Z,5.94
2019-04-06T22:46:17.069Z,5.96
2019-04-06T22:48:44.387Z,5.98
2019-04-06T22:51:11.527Z,5.99
2019-04-06T22:53:38.668Z,6.00
2019-04-06T22:56:05.806Z,6.01
2019-04-06T22:58:33.389Z,6.01
2019-04-06T23:01:08.781Z,6.01
2019-04-06T23:03:54.157Z,6.01
2019-04-06T23:06:27.199Z,5.99
2019-04-06T23:08:54.243Z,5.97
2019-04-06T23:11:21.603Z,5.95
2019-04-06T23:13:49.456Z,5.96
2019-04-06T23:16:17.029Z,5.98
2019-04-06T23:18:44.486Z,6.00
2019-04-06T23:21:11.707Z,6.03
2019-04-06T23:23:38.791Z,6.03
2019-04-06T23:26:05.870Z,6.06
2019-04-06T23:28:34.742Z,6.08
2019-04-06T23:31:01.816Z,6.06
2019-04-06T23:33:29.045Z,6.03
2019-04-06T23:35:56.170Z,6.04
2019-04-06T23:38:23.311Z,6.05
2019-04-06T23:40:50.427Z,6.06
2019-04-06T23:43:17.507Z,6.05
2019-04-06T23:45:44.801Z,6.06
2019-04-06T23:48:12.050Z,6.06
2019-04-06T23:50:39.539Z,6.07
2019-04-06T23:53:06.811Z,6.10
2019-04-06T23:55:35.392Z,6.11
2019-04-06T23:58:02.874Z,6.11
